sensor_id;sensor_type;location;lat;lon;timestamp;pressure;altitude;pressure_sealevel;temperature;humidity
13209;BME280;6669;42.678;23.332;2022-09-09T00:02:00;94723.88;;;18.44;100.00
13209;BME280;6669;42.678;23.332;2022-09-09T00:04:31;94720.47;;;18.43;100.00
13209;BME280;6669;42.678;23.332;2022-09-09T00:07:04;94715.56;;;18.47;100.00
13209;BME280;6669;42.678;23.332;2022-09-09T00:09:39;94714.88;;;18.52;100.00
13209;BME280;6669;42.678;23.332;2022-09-09T00:12:15;94713.19;;;18.39;100.00
13209;BME280;6669;42.678;23.332;2022-09-09T00:14:49;94710.06;;;18.30;100.00
13209;BME280;6669;42.678;23.332;2022-09-09T00:17:35;94707.88;;;18.27;100.00
13209;BME280;6669;42.678;23.332;2022-09-09T00:20:13;94709.03;;;18.31;100.00
13209;BME280;6669;42.678;23.332;2022-09-09T00:22:47;94698.25;;;18.39;100.00
13209;BME280;6669;42.678;23.332;2022-09-09T00:25:24;94692.69;;;18.29;100.00
13209;BME280;6669;42.678;23.332;2022-09-09T00:27:54;94685.81;;;18.28;100.00
13209;BME280;6669;42.678;23.332;2022-09-09T00:30:25;94676.38;;;18.20;100.00
13209;BME280;6669;42.678;23.332;2022-09-09T00:32:55;94676.25;;;18.08;100.00
13209;BME280;6669;42.678;23.332;2022-09-09T00:35:29;94665.66;;;17.96;100.00
13209;BME280;6669;42.678;23.332;2022-09-09T00:38:03;94670.66;;;18.05;100.00
13209;BME280;6669;42.678;23.332;2022-09-09T00:40:41;94653.97;;;18.11;100.00
13209;BME280;6669;42.678;23.332;2022-09-09T00:43:27;94648.16;;;18.09;100.00
13209;BME280;6669;42.678;23.332;2022-09-09T00:46:21;94645.06;;;17.93;100.00
13209;BME280;6669;42.678;23.332;2022-09-09T00:48:59;94650.34;;;17.87;100.00
13209;BME280;6669;42.678;23.332;2022-09-09T00:51:42;94646.91;;;17.86;100.00
13209;BME280;6669;42.678;23.332;2022-09-09T00:54:23;94652.31;;;17.91;100.00
13209;BME280;6669;42.678;23.332;2022-09-09T00:57:03;94646.25;;;17.97;100.00
13209;BME280;6669;42.678;23.332;2022-09-09T00:59:45;94646.28;;;17.91;100.00
13209;BME280;6669;42.678;23.332;2022-09-09T01:02:21;94646.47;;;17.89;100.00
13209;BME280;6669;42.678;23.332;2022-09-09T01:04:53;94643.50;;;17.86;100.00
13209;BME280;6669;42.678;23.332;2022-09-09T01:07:23;94645.16;;;17.80;100.00
13209;BME280;6669;42.678;23.332;2022-09-09T01:09:55;94645.75;;;17.82;100.00
13209;BME280;6669;42.678;23.332;2022-09-09T01:12:26;94644.34;;;17.79;100.00
13209;BME280;6669;42.678;23.332;2022-09-09T01:15:03;94652.63;;;17.83;100.00
13209;BME280;6669;42.678;23.332;2022-09-09T01:17:46;94646.31;;;17.84;100.00
13209;BME280;6669;42.678;23.332;2022-09-09T01:20:20;94656.66;;;17.86;100.00
13209;BME280;6669;42.678;23.332;2022-09-09T01:23:04;94652.78;;;17.88;100.00
13209;BME280;6669;42.678;23.332;2022-09-09T01:29:00;94639.59;;;17.70;100.00
13209;BME280;6669;42.678;23.332;2022-09-09T01:31:30;94637.91;;;17.75;100.00
13209;BME280;6669;42.678;23.332;2022-09-09T01:33:59;94639.50;;;17.76;100.00
13209;BME280;6669;42.678;23.332;2022-09-09T01:36:33;94639.81;;;17.68;100.00
13209;BME280;6669;42.678;23.332;2022-09-09T01:39:03;94644.84;;;17.70;100.00
13209;BME280;6669;42.678;23.332;2022-09-09T01:41:33;94649.34;;;17.62;100.00
13209;BME280;6669;42.678;23.332;2022-09-09T01:44:02;94648.97;;;17.59;100.00
13209;BME280;6669;42.678;23.332;2022-09-09T01:46:30;94641.28;;;17.57;100.00
13209;BME280;6669;42.678;23.332;2022-09-09T01:49:00;94644.53;;;17.59;100.00
13209;BME280;6669;42.678;23.332;2022-09-09T01:51:30;94654.97;;;17.66;100.00
13209;BME280;6669;42.678;23.332;2022-09-09T01:53:58;94658.97;;;17.50;100.00
13209;BME280;6669;42.678;23.332;2022-09-09T01:56:37;94654.88;;;17.54;100.00
13209;BME280;6669;42.678;23.332;2022-09-09T01:59:21;94660.13;;;17.54;100.00
13209;BME280;6669;42.678;23.332;2022-09-09T02:02:00;94655.28;;;17.51;100.00
13209;BME280;6669;42.678;23.332;2022-09-09T02:04:37;94650.09;;;17.44;100.00
13209;BME280;6669;42.678;23.332;2022-09-09T02:07:12;94650.91;;;17.45;100.00
13209;BME280;6669;42.678;23.332;2022-09-09T02:09:43;94645.66;;;17.45;100.00
13209;BME280;6669;42.678;23.332;2022-09-09T02:12:18;94649.53;;;17.36;100.00
13209;BME280;6669;42.678;23.332;2022-09-09T02:14:51;94639.88;;;17.29;100.00
13209;BME280;6669;42.678;23.332;2022-09-09T02:17:26;94626.81;;;17.23;100.00
13209;BME280;6669;42.678;23.332;2022-09-09T02:19:57;94620.94;;;17.21;100.00
13209;BME280;6669;42.678;23.332;2022-09-09T02:22:31;94621.16;;;17.26;100.00
13209;BME280;6669;42.678;23.332;2022-09-09T02:25:02;94621.34;;;17.24;100.00
13209;BME280;6669;42.678;23.332;2022-09-09T02:27:33;94623.97;;;17.24;100.00
13209;BME280;6669;42.678;23.332;2022-09-09T02:30:03;94629.97;;;17.31;100.00
13209;BME280;6669;42.678;23.332;2022-09-09T02:32:34;94635.88;;;17.27;100.00
13209;BME280;6669;42.678;23.332;2022-09-09T02:35:06;94635.31;;;17.18;100.00
13209;BME280;6669;42.678;23.332;2022-09-09T02:37:38;94634.75;;;17.16;100.00
13209;BME280;6669;42.678;23.332;2022-09-09T02:40:08;94635.81;;;17.08;100.00
13209;BME280;6669;42.678;23.332;2022-09-09T02:42:40;94636.81;;;17.07;100.00
13209;BME280;6669;42.678;23.332;2022-09-09T02:45:10;94641.63;;;17.17;100.00
13209;BME280;6669;42.678;23.332;2022-09-09T02:47:41;94645.63;;;17.20;100.00
13209;BME280;6669;42.678;23.332;2022-09-09T02:50:16;94658.97;;;17.18;100.00
13209;BME280;6669;42.678;23.332;2022-09-09T02:52:55;94647.59;;;17.24;100.00
13209;BME280;6669;42.678;23.332;2022-09-09T02:55:38;94642.69;;;17.03;100.00
13209;BME280;6669;42.678;23.332;2022-09-09T02:58:09;94639.50;;;17.01;100.00
13209;BME280;6669;42.678;23.332;2022-09-09T03:00:40;94642.88;;;17.08;100.00
13209;BME280;6669;42.678;23.332;2022-09-09T03:03:08;94643.47;;;17.10;100.00
13209;BME280;6669;42.678;23.332;2022-09-09T03:05:37;94649.16;;;17.07;100.00
13209;BME280;6669;42.678;23.332;2022-09-09T03:08:05;94648.59;;;16.98;100.00
13209;BME280;6669;42.678;23.332;2022-09-09T03:10:33;94643.75;;;16.95;100.00
13209;BME280;6669;42.678;23.332;2022-09-09T03:13:01;94644.97;;;16.92;100.00
13209;BME280;6669;42.678;23.332;2022-09-09T03:15:32;94647.19;;;16.95;100.00
13209;BME280;6669;42.678;23.332;2022-09-09T03:18:01;94645.38;;;16.96;100.00
13209;BME280;6669;42.678;23.332;2022-09-09T03:20:30;94657.06;;;17.00;100.00
13209;BME280;6669;42.678;23.332;2022-09-09T03:22:59;94651.25;;;16.91;100.00
13209;BME280;6669;42.678;23.332;2022-09-09T03:25:27;94637.50;;;16.89;100.00
13209;BME280;6669;42.678;23.332;2022-09-09T03:27:56;94644.59;;;16.82;100.00
13209;BME280;6669;42.678;23.332;2022-09-09T03:30:25;94634.16;;;16.75;100.00
13209;BME280;6669;42.678;23.332;2022-09-09T03:32:55;94648.25;;;16.81;100.00
13209;BME280;6669;42.678;23.332;2022-09-09T03:35:23;94648.25;;;16.81;100.00
13209;BME280;6669;42.678;23.332;2022-09-09T03:37:51;94638.75;;;16.80;100.00
13209;BME280;6669;42.678;23.332;2022-09-09T03:40:19;94641.59;;;16.78;100.00
13209;BME280;6669;42.678;23.332;2022-09-09T03:42:47;94639.44;;;16.69;100.00
13209;BME280;6669;42.678;23.332;2022-09-09T03:45:16;94636.19;;;16.66;100.00
13209;BME280;6669;42.678;23.332;2022-09-09T03:47:44;94640.84;;;16.64;100.00
13209;BME280;6669;42.678;23.332;2022-09-09T03:50:14;94643.88;;;16.68;100.00
13209;BME280;6669;42.678;23.332;2022-09-09T03:52:42;94639.63;;;16.74;100.00
13209;BME280;6669;42.678;23.332;2022-09-09T03:55:10;94638.16;;;16.78;100.00
13209;BME280;6669;42.678;23.332;2022-09-09T03:57:38;94647.50;;;16.74;100.00
13209;BME280;6669;42.678;23.332;2022-09-09T04:00:08;94649.50;;;16.72;100.00
13209;BME280;6669;42.678;23.332;2022-09-09T04:02:36;94656.38;;;16.73;100.00
13209;BME280;6669;42.678;23.332;2022-09-09T04:05:04;94662.03;;;16.70;100.00
13209;BME280;6669;42.678;23.332;2022-09-09T04:07:34;94657.03;;;16.61;100.00
13209;BME280;6669;42.678;23.332;2022-09-09T04:10:03;94649.38;;;16.60;100.00
13209;BME280;6669;42.678;23.332;2022-09-09T04:12:31;94655.41;;;16.60;100.00
13209;BME280;6669;42.678;23.332;2022-09-09T04:14:59;94653.78;;;16.59;100.00
13209;BME280;6669;42.678;23.332;2022-09-09T04:17:29;94649.75;;;16.57;100.00
13209;BME280;6669;42.678;23.332;2022-09-09T04:19:57;94638.88;;;16.53;100.00
13209;BME280;6669;42.678;23.332;2022-09-09T04:22:25;94643.13;;;16.54;100.00
13209;BME280;6669;42.678;23.332;2022-09-09T04:24:54;94649.38;;;16.53;100.00
13209;BME280;6669;42.678;23.332;2022-09-09T04:27:22;94647.38;;;16.48;100.00
13209;BME280;6669;42.678;23.332;2022-09-09T04:29:50;94641.94;;;16.50;100.00
13209;BME280;6669;42.678;23.332;2022-09-09T04:32:18;94650.19;;;16.54;100.00
13209;BME280;6669;42.678;23.332;2022-09-09T04:34:46;94656.84;;;16.56;100.00
13209;BME280;6669;42.678;23.332;2022-09-09T04:37:14;94656.81;;;16.63;100.00
13209;BME280;6669;42.678;23.332;2022-09-09T04:39:43;94661.66;;;16.59;100.00
13209;BME280;6669;42.678;23.332;2022-09-09T04:42:13;94664.50;;;16.58;100.00
13209;BME280;6669;42.678;23.332;2022-09-09T04:44:45;94662.88;;;16.57;100.00
13209;BME280;6669;42.678;23.332;2022-09-09T04:47:13;94659.03;;;16.59;100.00
13209;BME280;6669;42.678;23.332;2022-09-09T04:49:41;94660.84;;;16.65;100.00
13209;BME280;6669;42.678;23.332;2022-09-09T04:52:09;94658.59;;;16.69;100.00
13209;BME280;6669;42.678;23.332;2022-09-09T04:54:37;94655.09;;;16.82;100.00
13209;BME280;6669;42.678;23.332;2022-09-09T04:57:05;94652.25;;;16.90;100.00
13209;BME280;6669;42.678;23.332;2022-09-09T04:59:34;94652.22;;;16.97;100.00
13209;BME280;6669;42.678;23.332;2022-09-09T05:02:02;94647.94;;;17.03;100.00
13209;BME280;6669;42.678;23.332;2022-09-09T05:04:31;94654.59;;;17.05;100.00
13209;BME280;6669;42.678;23.332;2022-09-09T05:06:59;94648.50;;;17.11;100.00
13209;BME280;6669;42.678;23.332;2022-09-09T05:09:27;94634.91;;;17.21;100.00
13209;BME280;6669;42.678;23.332;2022-09-09T05:11:55;94637.06;;;17.31;100.00
13209;BME280;6669;42.678;23.332;2022-09-09T05:14:23;94642.69;;;17.35;100.00
13209;BME280;6669;42.678;23.332;2022-09-09T05:16:53;94647.09;;;17.41;100.00
13209;BME280;6669;42.678;23.332;2022-09-09T05:19:22;94659.00;;;17.43;100.00
13209;BME280;6669;42.678;23.332;2022-09-09T05:21:50;94652.47;;;17.53;100.00
13209;BME280;6669;42.678;23.332;2022-09-09T05:24:19;94643.75;;;17.52;100.00
13209;BME280;6669;42.678;23.332;2022-09-09T05:26:49;94639.28;;;17.59;100.00
13209;BME280;6669;42.678;23.332;2022-09-09T05:29:19;94644.09;;;17.62;100.00
13209;BME280;6669;42.678;23.332;2022-09-09T05:31:47;94638.44;;;17.59;100.00
13209;BME280;6669;42.678;23.332;2022-09-09T05:34:16;94643.28;;;17.62;100.00
13209;BME280;6669;42.678;23.332;2022-09-09T05:36:44;94646.53;;;17.64;100.00
13209;BME280;6669;42.678;23.332;2022-09-09T05:39:13;94645.63;;;17.70;100.00
13209;BME280;6669;42.678;23.332;2022-09-09T05:41:41;94643.53;;;17.79;100.00
13209;BME280;6669;42.678;23.332;2022-09-09T05:44:09;94648.94;;;17.84;100.00
13209;BME280;6669;42.678;23.332;2022-09-09T05:46:37;94649.94;;;17.90;100.00
13209;BME280;6669;42.678;23.332;2022-09-09T05:49:05;94659.81;;;17.94;100.00
13209;BME280;6669;42.678;23.332;2022-09-09T05:51:36;94662.78;;;18.05;100.00
13209;BME280;6669;42.678;23.332;2022-09-09T05:54:04;94668.03;;;18.05;100.00
13209;BME280;6669;42.678;23.332;2022-09-09T05:56:32;94654.13;;;18.16;100.00
13209;BME280;6669;42.678;23.332;2022-09-09T05:59:00;94666.56;;;18.27;100.00
13209;BME280;6669;42.678;23.332;2022-09-09T06:01:30;94669.94;;;18.35;100.00
13209;BME280;6669;42.678;23.332;2022-09-09T06:03:59;94683.63;;;18.43;100.00
13209;BME280;6669;42.678;23.332;2022-09-09T06:06:30;94678.13;;;18.45;100.00
13209;BME280;6669;42.678;23.332;2022-09-09T06:09:05;94695.38;;;18.41;100.00
13209;BME280;6669;42.678;23.332;2022-09-09T06:11:38;94696.91;;;18.49;100.00
13209;BME280;6669;42.678;23.332;2022-09-09T06:14:06;94698.53;;;18.50;100.00
13209;BME280;6669;42.678;23.332;2022-09-09T06:16:35;94690.56;;;18.56;100.00
13209;BME280;6669;42.678;23.332;2022-09-09T06:19:04;94688.94;;;18.74;100.00
13209;BME280;6669;42.678;23.332;2022-09-09T06:21:34;94702.31;;;18.91;100.00
13209;BME280;6669;42.678;23.332;2022-09-09T06:24:05;94701.00;;;19.00;100.00
13209;BME280;6669;42.678;23.332;2022-09-09T06:26:35;94708.81;;;19.07;100.00
13209;BME280;6669;42.678;23.332;2022-09-09T06:29:04;94708.69;;;19.02;100.00
13209;BME280;6669;42.678;23.332;2022-09-09T06:31:33;94715.75;;;19.20;100.00
13209;BME280;6669;42.678;23.332;2022-09-09T06:34:05;94716.09;;;19.23;100.00
13209;BME280;6669;42.678;23.332;2022-09-09T06:36:35;94714.16;;;19.31;100.00
13209;BME280;6669;42.678;23.332;2022-09-09T06:39:06;94703.53;;;19.37;100.00
13209;BME280;6669;42.678;23.332;2022-09-09T06:41:40;94705.59;;;19.35;100.00
13209;BME280;6669;42.678;23.332;2022-09-09T06:44:09;94705.72;;;19.40;100.00
13209;BME280;6669;42.678;23.332;2022-09-09T06:46:38;94704.56;;;19.36;100.00
13209;BME280;6669;42.678;23.332;2022-09-09T06:49:08;94701.94;;;19.48;100.00
13209;BME280;6669;42.678;23.332;2022-09-09T06:51:37;94719.06;;;19.57;100.00
13209;BME280;6669;42.678;23.332;2022-09-09T06:54:11;94721.38;;;19.66;100.00
13209;BME280;6669;42.678;23.332;2022-09-09T06:56:41;94719.88;;;19.70;100.00
13209;BME280;6669;42.678;23.332;2022-09-09T06:59:10;94740.72;;;19.90;100.00
13209;BME280;6669;42.678;23.332;2022-09-09T07:01:40;94740.03;;;19.95;100.00
13209;BME280;6669;42.678;23.332;2022-09-09T07:04:09;94751.06;;;20.03;100.00
13209;BME280;6669;42.678;23.332;2022-09-09T07:06:39;94744.97;;;20.15;100.00
13209;BME280;6669;42.678;23.332;2022-09-09T07:09:12;94748.66;;;20.25;100.00
13209;BME280;6669;42.678;23.332;2022-09-09T07:11:42;94745.22;;;20.37;100.00
13209;BME280;6669;42.678;23.332;2022-09-09T07:14:11;94752.34;;;20.48;100.00
13209;BME280;6669;42.678;23.332;2022-09-09T07:16:41;94745.09;;;20.44;100.00
13209;BME280;6669;42.678;23.332;2022-09-09T07:19:09;94739.22;;;20.65;100.00
13209;BME280;6669;42.678;23.332;2022-09-09T07:21:38;94736.03;;;20.75;100.00
13209;BME280;6669;42.678;23.332;2022-09-09T07:24:07;94742.31;;;20.86;100.00
13209;BME280;6669;42.678;23.332;2022-09-09T07:26:39;94740.56;;;20.92;100.00
13209;BME280;6669;42.678;23.332;2022-09-09T07:29:07;94743.91;;;20.99;100.00
13209;BME280;6669;42.678;23.332;2022-09-09T07:31:37;94737.09;;;21.03;100.00
13209;BME280;6669;42.678;23.332;2022-09-09T07:34:06;94732.50;;;20.98;100.00
13209;BME280;6669;42.678;23.332;2022-09-09T07:36:36;94732.84;;;21.02;100.00
13209;BME280;6669;42.678;23.332;2022-09-09T07:39:07;94728.97;;;21.21;100.00
13209;BME280;6669;42.678;23.332;2022-09-09T07:41:38;94721.81;;;21.34;100.00
13209;BME280;6669;42.678;23.332;2022-09-09T07:44:12;94735.88;;;21.51;100.00
13209;BME280;6669;42.678;23.332;2022-09-09T07:46:40;94744.34;;;21.65;100.00
13209;BME280;6669;42.678;23.332;2022-09-09T07:49:09;94728.16;;;21.79;100.00
13209;BME280;6669;42.678;23.332;2022-09-09T07:51:38;94744.22;;;22.06;100.00
13209;BME280;6669;42.678;23.332;2022-09-09T07:54:09;94741.56;;;22.23;100.00
13209;BME280;6669;42.678;23.332;2022-09-09T07:56:39;94740.56;;;22.46;100.00
13209;BME280;6669;42.678;23.332;2022-09-09T07:59:08;94743.22;;;22.63;100.00
13209;BME280;6669;42.678;23.332;2022-09-09T08:01:38;94745.19;;;22.73;100.00
13209;BME280;6669;42.678;23.332;2022-09-09T08:04:08;94733.13;;;22.82;100.00
13209;BME280;6669;42.678;23.332;2022-09-09T08:06:39;94737.44;;;22.89;100.00
13209;BME280;6669;42.678;23.332;2022-09-09T08:09:08;94739.53;;;23.09;100.00
13209;BME280;6669;42.678;23.332;2022-09-09T08:11:39;94745.78;;;23.20;100.00
13209;BME280;6669;42.678;23.332;2022-09-09T08:14:08;94738.53;;;23.37;100.00
13209;BME280;6669;42.678;23.332;2022-09-09T08:16:39;94739.22;;;23.49;100.00
13209;BME280;6669;42.678;23.332;2022-09-09T08:19:08;94737.44;;;23.60;100.00
13209;BME280;6669;42.678;23.332;2022-09-09T08:21:37;94730.63;;;23.70;100.00
13209;BME280;6669;42.678;23.332;2022-09-09T08:24:10;94738.91;;;23.78;100.00
13209;BME280;6669;42.678;23.332;2022-09-09T08:26:41;94741.25;;;23.97;100.00
13209;BME280;6669;42.678;23.332;2022-09-09T08:29:11;94739.31;;;24.25;100.00
13209;BME280;6669;42.678;23.332;2022-09-09T08:31:41;94725.97;;;24.14;100.00
13209;BME280;6669;42.678;23.332;2022-09-09T08:34:10;94735.50;;;24.48;100.00
13209;BME280;6669;42.678;23.332;2022-09-09T08:36:41;94727.91;;;24.67;100.00
13209;BME280;6669;42.678;23.332;2022-09-09T08:39:11;94741.41;;;24.60;100.00
13209;BME280;6669;42.678;23.332;2022-09-09T08:42:09;94732.81;;;24.91;100.00
13209;BME280;6669;42.678;23.332;2022-09-09T08:45:19;94726.91;;;24.78;100.00
13209;BME280;6669;42.678;23.332;2022-09-09T08:47:58;94719.25;;;24.87;100.00
13209;BME280;6669;42.678;23.332;2022-09-09T08:50:33;94720.59;;;24.95;100.00
13209;BME280;6669;42.678;23.332;2022-09-09T08:53:10;94719.59;;;25.11;100.00
13209;BME280;6669;42.678;23.332;2022-09-09T08:55:42;94728.38;;;25.22;100.00
13209;BME280;6669;42.678;23.332;2022-09-09T08:58:15;94719.59;;;25.11;100.00
13209;BME280;6669;42.678;23.332;2022-09-09T09:00:57;94727.34;;;25.23;100.00
13209;BME280;6669;42.678;23.332;2022-09-09T09:03:35;94720.38;;;25.12;100.00
13209;BME280;6669;42.678;23.332;2022-09-09T09:06:17;94723.13;;;25.38;100.00
13209;BME280;6669;42.678;23.332;2022-09-09T09:08:59;94724.66;;;25.18;100.00
13209;BME280;6669;42.678;23.332;2022-09-09T09:11:35;94718.56;;;25.23;100.00
13209;BME280;6669;42.678;23.332;2022-09-09T09:14:09;94716.75;;;25.39;100.00
13209;BME280;6669;42.678;23.332;2022-09-09T09:16:48;94719.19;;;25.45;100.00
13209;BME280;6669;42.678;23.332;2022-09-09T09:19:18;94717.03;;;25.48;100.00
13209;BME280;6669;42.678;23.332;2022-09-09T09:21:52;94708.78;;;25.39;100.00
13209;BME280;6669;42.678;23.332;2022-09-09T09:24:27;94713.88;;;25.76;100.00
13209;BME280;6669;42.678;23.332;2022-09-09T09:27:00;94712.81;;;25.93;100.00
13209;BME280;6669;42.678;23.332;2022-09-09T09:29:38;94706.19;;;26.06;100.00
13209;BME280;6669;42.678;23.332;2022-09-09T09:32:30;94722.19;;;26.06;100.00
13209;BME280;6669;42.678;23.332;2022-09-09T09:35:02;94723.50;;;26.14;100.00
13209;BME280;6669;42.678;23.332;2022-09-09T09:37:34;94715.50;;;26.08;100.00
13209;BME280;6669;42.678;23.332;2022-09-09T09:40:09;94717.63;;;26.27;100.00
13209;BME280;6669;42.678;23.332;2022-09-09T09:42:46;94711.50;;;26.11;100.00
13209;BME280;6669;42.678;23.332;2022-09-09T09:45:25;94700.53;;;26.38;100.00
13209;BME280;6669;42.678;23.332;2022-09-09T09:47:59;94696.53;;;26.51;100.00
13209;BME280;6669;42.678;23.332;2022-09-09T09:50:33;94694.13;;;26.50;100.00
13209;BME280;6669;42.678;23.332;2022-09-09T09:53:04;94694.72;;;26.31;100.00
13209;BME280;6669;42.678;23.332;2022-09-09T09:55:34;94690.47;;;26.15;100.00
13209;BME280;6669;42.678;23.332;2022-09-09T09:58:05;94691.50;;;26.24;100.00
13209;BME280;6669;42.678;23.332;2022-09-09T10:00:47;94682.16;;;26.32;100.00
13209;BME280;6669;42.678;23.332;2022-09-09T10:03:25;94689.06;;;26.43;100.00
13209;BME280;6669;42.678;23.332;2022-09-09T10:05:54;94682.44;;;26.35;100.00
13209;BME280;6669;42.678;23.332;2022-09-09T10:08:23;94681.91;;;26.23;100.00
13209;BME280;6669;42.678;23.332;2022-09-09T10:11:09;94687.28;;;26.07;100.00
13209;BME280;6669;42.678;23.332;2022-09-09T10:13:50;94704.31;;;26.06;100.00
13209;BME280;6669;42.678;23.332;2022-09-09T10:16:32;94698.97;;;25.81;100.00
13209;BME280;6669;42.678;23.332;2022-09-09T10:19:05;94702.69;;;25.90;100.00
13209;BME280;6669;42.678;23.332;2022-09-09T10:21:56;94702.19;;;25.83;100.00
13209;BME280;6669;42.678;23.332;2022-09-09T10:24:48;94707.75;;;25.76;100.00
13209;BME280;6669;42.678;23.332;2022-09-09T10:27:24;94701.09;;;25.73;100.00
13209;BME280;6669;42.678;23.332;2022-09-09T10:30:04;94704.28;;;25.70;100.00
13209;BME280;6669;42.678;23.332;2022-09-09T10:32:48;94698.97;;;25.70;100.00
13209;BME280;6669;42.678;23.332;2022-09-09T10:35:30;94706.13;;;25.59;100.00
13209;BME280;6669;42.678;23.332;2022-09-09T10:38:17;94706.41;;;25.58;100.00
13209;BME280;6669;42.678;23.332;2022-09-09T10:41:04;94702.91;;;25.32;100.00
13209;BME280;6669;42.678;23.332;2022-09-09T10:46:36;94710.94;;;25.57;100.00
13209;BME280;6669;42.678;23.332;2022-09-09T10:49:20;94705.91;;;25.61;100.00
13209;BME280;6669;42.678;23.332;2022-09-09T10:51:56;94710.66;;;25.59;100.00
13209;BME280;6669;42.678;23.332;2022-09-09T10:54:39;94710.66;;;25.59;100.00
13209;BME280;6669;42.678;23.332;2022-09-09T10:57:17;94704.03;;;25.67;100.00
13209;BME280;6669;42.678;23.332;2022-09-09T10:59:55;94702.97;;;25.78;100.00
13209;BME280;6669;42.678;23.332;2022-09-09T11:02:34;94700.31;;;25.68;100.00
13209;BME280;6669;42.678;23.332;2022-09-09T11:05:06;94697.34;;;25.43;100.00
13209;BME280;6669;42.678;23.332;2022-09-09T11:07:40;94703.72;;;25.42;100.00
13209;BME280;6669;42.678;23.332;2022-09-09T11:10:19;94698.34;;;25.22;100.00
13209;BME280;6669;42.678;23.332;2022-09-09T11:12:53;94707.63;;;25.09;100.00
13209;BME280;6669;42.678;23.332;2022-09-09T11:15:29;94705.44;;;25.01;100.00
13209;BME280;6669;42.678;23.332;2022-09-09T11:18:04;94707.91;;;25.18;100.00
13209;BME280;6669;42.678;23.332;2022-09-09T11:20:34;94697.81;;;25.35;100.00
13209;BME280;6669;42.678;23.332;2022-09-09T11:23:03;94692.31;;;25.52;100.00
13209;BME280;6669;42.678;23.332;2022-09-09T11:25:35;94686.72;;;25.64;100.00
13209;BME280;6669;42.678;23.332;2022-09-09T11:28:28;94687.53;;;25.80;100.00
13209;BME280;6669;42.678;23.332;2022-09-09T11:31:11;94687.53;;;25.80;100.00
13209;BME280;6669;42.678;23.332;2022-09-09T11:34:19;94666.47;;;25.78;100.00
13209;BME280;6669;42.678;23.332;2022-09-09T11:37:11;94663.03;;;25.78;100.00
13209;BME280;6669;42.678;23.332;2022-09-09T11:40:14;94660.06;;;26.00;100.00
13209;BME280;6669;42.678;23.332;2022-09-09T11:42:45;94649.69;;;26.04;100.00
13209;BME280;6669;42.678;23.332;2022-09-09T11:45:26;94646.50;;;26.02;100.00
13209;BME280;6669;42.678;23.332;2022-09-09T11:47:57;94638.78;;;26.21;100.00
13209;BME280;6669;42.678;23.332;2022-09-09T11:50:31;94631.81;;;26.30;100.00
13209;BME280;6669;42.678;23.332;2022-09-09T11:53:18;94612.06;;;26.41;100.00
13209;BME280;6669;42.678;23.332;2022-09-09T11:56:07;94614.19;;;26.44;100.00
13209;BME280;6669;42.678;23.332;2022-09-09T11:58:44;94624.50;;;26.67;100.00
13209;BME280;6669;42.678;23.332;2022-09-09T12:01:42;94627.09;;;26.87;100.00
13209;BME280;6669;42.678;23.332;2022-09-09T12:04:32;94620.84;;;27.07;100.00
13209;BME280;6669;42.678;23.332;2022-09-09T12:07:20;94622.53;;;27.72;100.00
13209;BME280;6669;42.678;23.332;2022-09-09T12:09:56;94627.03;;;28.12;100.00
13209;BME280;6669;42.678;23.332;2022-09-09T12:12:28;94617.75;;;28.28;100.00
13209;BME280;6669;42.678;23.332;2022-09-09T12:15:03;94607.25;;;28.56;100.00
13209;BME280;6669;42.678;23.332;2022-09-09T12:17:45;94603.00;;;28.79;100.00
13209;BME280;6669;42.678;23.332;2022-09-09T12:20:15;94610.09;;;29.27;100.00
13209;BME280;6669;42.678;23.332;2022-09-09T12:22:53;94597.69;;;29.37;100.00
13209;BME280;6669;42.678;23.332;2022-09-09T12:25:32;94606.38;;;29.61;100.00
13209;BME280;6669;42.678;23.332;2022-09-09T12:28:08;94605.53;;;29.47;100.00
13209;BME280;6669;42.678;23.332;2022-09-09T12:30:49;94602.91;;;29.61;100.00
13209;BME280;6669;42.678;23.332;2022-09-09T12:33:21;94594.69;;;30.04;100.00
13209;BME280;6669;42.678;23.332;2022-09-09T12:35:54;94588.94;;;30.11;100.00
13209;BME280;6669;42.678;23.332;2022-09-09T12:38:27;94590.22;;;30.13;100.00
13209;BME280;6669;42.678;23.332;2022-09-09T12:40:59;94585.78;;;29.76;99.69
13209;BME280;6669;42.678;23.332;2022-09-09T12:43:28;94574.34;;;29.70;100.00
13209;BME280;6669;42.678;23.332;2022-09-09T12:45:58;94575.81;;;29.29;100.00
13209;BME280;6669;42.678;23.332;2022-09-09T12:48:32;94579.00;;;29.31;100.00
13209;BME280;6669;42.678;23.332;2022-09-09T12:51:05;94581.38;;;28.95;100.00
13209;BME280;6669;42.678;23.332;2022-09-09T12:53:36;94568.47;;;28.83;100.00
13209;BME280;6669;42.678;23.332;2022-09-09T12:56:08;94569.69;;;28.72;100.00
13209;BME280;6669;42.678;23.332;2022-09-09T12:58:46;94563.31;;;28.86;100.00
13209;BME280;6669;42.678;23.332;2022-09-09T13:01:21;94561.13;;;29.08;100.00
13209;BME280;6669;42.678;23.332;2022-09-09T13:03:49;94560.53;;;29.30;100.00
13209;BME280;6669;42.678;23.332;2022-09-09T13:06:21;94558.81;;;29.20;100.00
13209;BME280;6669;42.678;23.332;2022-09-09T13:08:55;94549.97;;;29.19;100.00
13209;BME280;6669;42.678;23.332;2022-09-09T13:11:29;94547.06;;;28.83;100.00
13209;BME280;6669;42.678;23.332;2022-09-09T13:13:59;94551.97;;;28.76;100.00
13209;BME280;6669;42.678;23.332;2022-09-09T13:16:28;94558.47;;;28.69;100.00
13209;BME280;6669;42.678;23.332;2022-09-09T13:19:08;94559.50;;;28.49;100.00
13209;BME280;6669;42.678;23.332;2022-09-09T13:21:39;94561.34;;;28.30;100.00
13209;BME280;6669;42.678;23.332;2022-09-09T13:24:25;94539.50;;;28.22;100.00
13209;BME280;6669;42.678;23.332;2022-09-09T13:26:58;94535.50;;;28.44;100.00
13209;BME280;6669;42.678;23.332;2022-09-09T13:29:29;94541.72;;;28.40;100.00